Time;durP1;ratioP1;P1;durP2;ratioP2;P2;SDS_P1;SDS_P2;PMS_P1;PMS_P2;Temp;Humidity;BMP_temperature;BMP_pressure;BME280_temperature;BME280_humidity;BME280_pressure;Samples;Min_cycle;Max_cycle;Signal;HPM_P1;HPM_P2
2022/09/23 00:00:31;;;;;;;9.87;9.00;;;;;;;8.71;91.38;96974.03;4976836;28;20188;-74
2022/09/23 00:02:58;;;;;;;10.17;9.37;;;;;;;8.66;92.24;96970.44;4976686;28;20196;-74
2022/09/23 00:05:24;;;;;;;10.13;9.43;;;;;;;8.58;92.68;96971.47;4976924;28;20189;-74
2022/09/23 00:07:49;;;;;;;10.37;9.47;;;;;;;8.56;92.59;96965.69;4976560;28;20184;-73
2022/09/23 00:10:15;;;;;;;10.13;9.33;;;;;;;8.52;93.42;96969.72;4977204;28;20193;-74
2022/09/23 00:12:40;;;;;;;10.50;9.70;;;;;;;8.61;92.74;96957.19;4976875;28;20228;-74
2022/09/23 00:15:06;;;;;;;9.63;8.93;;;;;;;8.57;92.76;96958.66;4958968;28;20223;-74
2022/09/23 00:17:31;;;;;;;9.43;8.63;;;;;;;8.43;93.90;96965.72;4976587;28;20208;-73
2022/09/23 00:19:57;;;;;;;10.23;9.03;;;;;;;8.39;94.03;96959.31;4976699;28;20252;-73
2022/09/23 00:22:22;;;;;;;10.20;9.27;;;;;;;8.36;94.12;96972.78;4976624;28;20244;-74
2022/09/23 00:24:48;;;;;;;8.77;8.07;;;;;;;8.24;94.44;96975.25;4958389;28;20203;-74
2022/09/23 00:27:13;;;;;;;10.33;9.27;;;;;;;8.34;94.18;96967.78;4976669;28;20206;-74
2022/09/23 00:29:39;;;;;;;10.67;9.83;;;;;;;8.33;94.15;96971.41;4976320;28;20180;-73
2022/09/23 00:32:04;;;;;;;10.30;9.50;;;;;;;8.36;93.78;96967.56;4975953;28;20216;-74
2022/09/23 00:34:30;;;;;;;10.87;10.07;;;;;;;8.39;93.51;96967.16;4976329;28;20664;-73
2022/09/23 00:36:55;;;;;;;10.77;9.77;;;;;;;8.36;93.49;96962.34;4976125;28;20208;-73
2022/09/23 00:39:22;;;;;;;10.87;10.07;;;;;;;8.48;92.46;96960.69;4976160;28;20198;-74
2022/09/23 00:41:48;;;;;;;11.97;10.77;;;;;;;8.40;93.14;96970.56;4976117;28;20189;-74
2022/09/23 00:44:58;;;;;;;12.40;11.20;;;;;;;8.52;92.52;96967.09;4976207;28;20248;-74
2022/09/23 00:47:31;;;;;;;12.07;11.07;;;;;;;8.32;93.51;96959.34;4969783;28;20645;-74
2022/09/23 00:50:11;;;;;;;14.63;13.23;;;;;;;8.31;93.79;96957.75;4975989;28;20172;-75
2022/09/23 00:52:36;;;;;;;14.83;13.33;;;;;;;8.22;94.68;96958.16;4976226;28;20188;-74
2022/09/23 00:55:09;;;;;;;13.33;12.07;;;;;;;8.31;93.97;96951.72;4975837;28;20664;-75
2022/09/23 00:57:37;;;;;;;14.33;13.20;;;;;;;8.20;94.70;96949.72;4975965;28;20177;-74
2022/09/23 01:00:05;;;;;;;15.00;13.90;;;;;;;8.29;94.36;96953.72;4975812;28;20185;-74
2022/09/23 01:02:31;;;;;;;17.60;16.07;;;;;;;8.34;94.20;96946.91;4975989;28;20216;-74
2022/09/23 01:04:57;;;;;;;17.07;15.87;;;;;;;8.20;95.27;96947.13;4975891;28;20220;-74
2022/09/23 01:07:23;;;;;;;16.30;15.17;;;;;;;8.33;94.58;96942.69;4975730;28;20251;-74
2022/09/23 01:09:49;;;;;;;13.87;12.90;;;;;;;8.33;94.48;96937.47;4975612;28;20189;-74
2022/09/23 01:12:38;;;;;;;13.20;12.27;;;;;;;8.28;94.98;96945.09;4975540;28;20280;-74
2022/09/23 01:15:18;;;;;;;11.67;10.77;;;;;;;8.12;95.46;96942.16;4975516;28;20192;-74
2022/09/23 01:18:25;;;;;;;11.53;10.63;;;;;;;8.20;95.11;96939.28;4976080;28;20255;-75
2022/09/23 01:21:13;;;;;;;13.70;12.70;;;;;;;8.13;96.22;96938.53;4866223;29;20193;-74
2022/09/23 01:24:11;;;;;;;15.70;14.50;;;;;;;8.04;96.71;96937.16;4868259;29;20292;-74
2022/09/23 01:26:57;;;;;;;19.67;18.37;;;;;;;7.99;97.27;96939.56;4961096;28;20204;-74
2022/09/23 01:29:34;;;;;;;20.30;18.87;;;;;;;7.98;97.65;96937.97;4961995;28;20216;-74
2022/09/23 01:32:10;;;;;;;19.47;17.93;;;;;;;8.07;96.86;96942.78;4974656;28;20588;-74
2022/09/23 01:35:29;;;;;;;17.83;16.53;;;;;;;8.11;96.63;96936.13;4975116;28;20541;-74
2022/09/23 01:38:02;;;;;;;14.63;13.63;;;;;;;8.07;97.25;96934.13;4942541;28;20239;-74
2022/09/23 01:40:58;;;;;;;13.53;12.43;;;;;;;8.08;97.25;96930.53;4975576;28;20624;-74
2022/09/23 01:43:39;;;;;;;13.13;12.13;;;;;;;8.07;97.13;96926.31;4957859;28;20176;-74
2022/09/23 01:46:14;;;;;;;12.70;11.70;;;;;;;8.10;96.70;96920.66;4974842;28;20196;-73
2022/09/23 01:49:16;;;;;;;13.37;12.30;;;;;;;8.18;96.24;96912.59;4974712;28;20187;-73
2022/09/23 01:51:48;;;;;;;14.23;13.20;;;;;;;8.05;96.66;96918.66;4974874;28;20184;-74
2022/09/23 01:54:20;;;;;;;12.83;11.93;;;;;;;7.96;97.27;96917.31;4974854;28;20256;-74
2022/09/23 01:57:02;;;;;;;14.20;13.10;;;;;;;7.99;97.58;96916.09;4974844;28;20212;-73
2022/09/23 01:59:39;;;;;;;13.33;12.23;;;;;;;8.04;96.87;96917.06;4974749;28;20769;-74
2022/09/23 02:02:25;;;;;;;12.60;11.60;;;;;;;7.92;97.38;96911.69;4974970;28;20600;-74
2022/09/23 02:05:00;;;;;;;13.30;12.23;;;;;;;8.10;96.57;96916.25;4974409;28;20230;-74
2022/09/23 02:07:34;;;;;;;12.77;11.83;;;;;;;7.97;96.69;96910.28;4974979;28;20191;-74
2022/09/23 02:10:24;;;;;;;13.00;12.00;;;;;;;7.83;98.02;96912.13;4974923;28;20181;-74
2022/09/23 02:12:56;;;;;;;13.73;12.63;;;;;;;7.83;98.58;96912.94;4956954;28;20188;-74
2022/09/23 02:15:27;;;;;;;13.90;12.83;;;;;;;7.91;98.02;96911.91;4974549;28;20533;-74
2022/09/23 02:18:08;;;;;;;15.60;14.50;;;;;;;7.84;98.92;96909.31;4975101;28;20185;-74
2022/09/23 02:20:38;;;;;;;16.87;15.60;;;;;;;7.76;99.54;96912.16;4974581;28;20169;-74
2022/09/23 02:23:11;;;;;;;18.33;17.03;;;;;;;7.79;99.61;96908.34;4956094;28;20191;-73
2022/09/23 02:25:55;;;;;;;18.73;17.30;;;;;;;7.62;100.00;96904.56;4974521;28;20192;-74
2022/09/23 02:29:04;;;;;;;18.00;16.80;;;;;;;7.78;99.47;96902.31;4974320;28;20192;-74
2022/09/23 02:31:39;;;;;;;19.10;17.73;;;;;;;7.67;100.00;96904.75;4964242;28;20224;-75
2022/09/23 02:34:25;;;;;;;19.07;17.77;;;;;;;7.54;100.00;96900.38;4974039;28;20194;-74
2022/09/23 02:37:08;;;;;;;20.57;19.07;;;;;;;7.52;100.00;96895.34;4973952;28;20287;-74
2022/09/23 02:39:51;;;;;;;17.77;16.57;;;;;;;7.55;100.00;96906.38;4974182;28;20187;-74
2022/09/23 02:42:24;;;;;;;20.97;19.57;;;;;;;7.55;100.00;96901.16;4974546;28;20248;-74
2022/09/23 02:44:49;;;;;;;17.10;15.67;;;;;;;7.53;100.00;96896.94;4973734;28;20219;-74
2022/09/23 02:47:19;;;;;;;16.93;15.73;;;;;;;7.50;100.00;96888.75;4973369;28;20216;-74
2022/09/23 02:49:44;;;;;;;14.37;13.27;;;;;;;7.46;100.00;96901.41;4973786;28;20235;-74
2022/09/23 02:52:12;;;;;;;16.27;15.07;;;;;;;7.41;100.00;96887.38;4973908;28;20192;-74
2022/09/23 02:54:39;;;;;;;16.13;14.90;;;;;;;7.35;100.00;96894.19;4974047;28;20187;-73
2022/09/23 02:57:06;;;;;;;18.80;17.47;;;;;;;7.47;100.00;96882.13;4974056;28;20608;-74
2022/09/23 02:59:34;;;;;;;21.50;19.50;;;;;;;7.40;100.00;96888.38;4973973;28;20184;-74
2022/09/23 03:02:41;;;;;;;24.17;22.53;;;;;;;7.34;100.00;96889.19;4974301;28;20268;-74
2022/09/23 03:05:25;;;;;;;25.43;23.53;;;;;;;7.37;100.00;96881.75;4957229;28;20224;-74
2022/09/23 03:08:03;;;;;;;22.47;20.87;;;;;;;7.20;100.00;96877.97;4973992;28;20181;-74
2022/09/23 03:10:45;;;;;;;24.13;22.27;;;;;;;7.24;100.00;96880.97;4973663;28;20181;-74
2022/09/23 03:13:21;;;;;;;21.03;19.63;;;;;;;7.24;100.00;96883.59;4973810;28;20187;-74
2022/09/23 03:15:59;;;;;;;20.83;19.43;;;;;;;7.31;100.00;96877.34;4973670;28;20508;-74
2022/09/23 03:18:44;;;;;;;19.53;18.13;;;;;;;7.28;100.00;96882.16;4973589;28;20184;-74
2022/09/23 03:21:13;;;;;;;17.53;16.17;;;;;;;7.19;100.00;96875.56;4973196;28;20641;-74
2022/09/23 03:23:41;;;;;;;17.17;15.87;;;;;;;7.15;100.00;96876.97;4974685;28;20656;-73
2022/09/23 03:26:12;;;;;;;16.23;15.00;;;;;;;7.09;100.00;96879.38;4977895;28;20188;-74
2022/09/23 03:28:42;;;;;;;15.00;13.67;;;;;;;7.16;100.00;96883.78;4977484;28;20256;-74
2022/09/23 03:31:09;;;;;;;15.03;13.77;;;;;;;7.12;100.00;96885.19;4977054;28;20231;-74
2022/09/23 03:33:37;;;;;;;14.73;13.47;;;;;;;7.11;100.00;96881.78;4977508;28;20211;-74
2022/09/23 03:39:02;;;;;;;13.47;12.37;;;;;;;7.01;100.00;96877.00;4976857;28;20664;-74
2022/09/23 03:41:42;;;;;;;12.17;11.17;;;;;;;7.05;100.00;96877.38;4977753;28;20176;-74
2022/09/23 03:44:08;;;;;;;12.47;11.47;;;;;;;7.07;100.00;96876.19;4959879;28;20184;-73
2022/09/23 03:46:35;;;;;;;12.27;11.27;;;;;;;6.98;100.00;96874.78;4977228;28;20235;-73
2022/09/23 03:49:13;;;;;;;12.67;11.43;;;;;;;7.03;100.00;96867.16;4976868;28;20208;-73
2022/09/23 03:51:38;;;;;;;12.30;11.27;;;;;;;7.00;100.00;96867.56;4977073;28;20571;-74
2022/09/23 03:54:04;;;;;;;14.30;13.10;;;;;;;6.96;100.00;96865.56;4977428;28;20276;-73
2022/09/23 03:56:29;;;;;;;13.97;12.87;;;;;;;6.94;100.00;96865.78;4977114;28;20240;-74
2022/09/23 03:58:55;;;;;;;14.63;13.40;;;;;;;6.98;100.00;96869.56;4976992;28;20239;-73
2022/09/23 04:01:20;;;;;;;15.57;14.37;;;;;;;7.02;100.00;96862.94;4959828;28;20268;-74
2022/09/23 04:03:45;;;;;;;15.77;14.17;;;;;;;6.97;100.00;96859.34;4977249;28;20547;-74
2022/09/23 04:06:11;;;;;;;15.03;13.93;;;;;;;6.79;100.00;96852.16;4977014;28;20195;-74
2022/09/23 04:08:36;;;;;;;14.50;13.50;;;;;;;6.73;100.00;96852.97;4976752;28;20188;-74
2022/09/23 04:11:03;;;;;;;15.70;14.47;;;;;;;6.73;100.00;96847.75;4976771;28;20185;-74
2022/09/23 04:13:29;;;;;;;14.67;13.57;;;;;;;6.82;100.00;96841.31;4976423;28;20653;-73
2022/09/23 04:15:54;;;;;;;15.97;14.37;;;;;;;6.81;100.00;96842.31;4976696;28;20232;-74
2022/09/23 04:18:20;;;;;;;14.03;12.93;;;;;;;6.81;100.00;96844.91;4976776;28;20184;-73
2022/09/23 04:20:46;;;;;;;13.63;12.23;;;;;;;6.82;100.00;96837.91;4977278;28;20821;-73
2022/09/23 04:23:11;;;;;;;14.43;13.13;;;;;;;6.79;100.00;96836.53;4975628;28;20292;-73
2022/09/23 04:25:44;;;;;;;14.10;12.90;;;;;;;6.81;100.00;96844.13;4976381;28;20657;-74
2022/09/23 04:28:09;;;;;;;13.77;12.67;;;;;;;6.67;100.00;96838.94;4976783;28;20180;-73
2022/09/23 04:30:45;;;;;;;13.93;12.80;;;;;;;6.75;100.00;96832.69;4976491;28;20196;-73
2022/09/23 04:33:11;;;;;;;13.80;12.47;;;;;;;6.67;100.00;96831.13;4976187;28;20184;-73
2022/09/23 04:35:38;;;;;;;14.67;13.27;;;;;;;6.71;100.00;96834.13;4975588;28;20320;-73
2022/09/23 04:38:04;;;;;;;13.80;12.73;;;;;;;6.69;100.00;96838.72;4976232;28;20191;-73
2022/09/23 04:40:29;;;;;;;14.10;12.83;;;;;;;6.71;100.00;96828.91;4976312;28;20200;-74
2022/09/23 04:42:55;;;;;;;13.70;12.60;;;;;;;6.78;100.00;96828.91;4976150;28;20703;-73
2022/09/23 04:45:20;;;;;;;20.47;13.73;;;;;;;6.75;100.00;96827.50;4975901;28;20177;-74
2022/09/23 04:47:46;;;;;;;13.63;12.50;;;;;;;6.63;100.00;96836.94;4968719;28;20193;-74
2022/09/23 04:50:11;;;;;;;15.00;13.53;;;;;;;6.62;100.00;96835.31;4974003;28;20629;-74
2022/09/23 04:52:36;;;;;;;13.83;12.60;;;;;;;6.52;100.00;96833.09;4976310;28;20696;-73
2022/09/23 04:55:02;;;;;;;14.47;13.17;;;;;;;6.53;100.00;96828.69;4976129;28;20236;-73
2022/09/23 04:57:28;;;;;;;14.00;12.93;;;;;;;6.60;100.00;96834.72;4975705;28;20271;-74
2022/09/23 04:59:55;;;;;;;15.43;13.97;;;;;;;6.66;100.00;96837.31;4975841;28;20192;-74
2022/09/23 05:02:21;;;;;;;14.30;12.90;;;;;;;6.61;100.00;96834.53;4976185;28;20185;-74
2022/09/23 05:04:46;;;;;;;13.43;12.23;;;;;;;6.62;100.00;96838.72;4976084;28;20196;-74
2022/09/23 05:07:12;;;;;;;15.23;13.93;;;;;;;6.67;100.00;96845.94;4975752;28;20199;-74
2022/09/23 05:09:37;;;;;;;15.43;13.93;;;;;;;6.67;100.00;96849.34;4976124;28;20191;-73
2022/09/23 05:12:03;;;;;;;15.80;14.40;;;;;;;6.50;100.00;96848.13;4975904;28;20247;-74
2022/09/23 05:14:28;;;;;;;16.13;14.80;;;;;;;6.52;100.00;96850.53;4975553;28;20212;-74
2022/09/23 05:16:54;;;;;;;15.23;13.87;;;;;;;6.56;100.00;96849.13;4975881;28;20291;-75
2022/09/23 05:19:19;;;;;;;13.50;12.23;;;;;;;6.62;100.00;96856.16;4975499;28;20181;-74
2022/09/23 05:21:44;;;;;;;13.23;12.23;;;;;;;6.72;100.00;96851.34;4975688;28;20227;-76
2022/09/23 05:24:10;;;;;;;12.70;11.50;;;;;;;6.92;100.00;96857.34;4974885;28;20271;-76
2022/09/23 05:26:36;;;;;;;15.07;13.63;;;;;;;7.09;100.00;96857.72;4975269;28;20193;-77
2022/09/23 05:29:01;;;;;;;15.13;14.07;;;;;;;7.05;100.00;96857.34;4975080;28;20617;-77
2022/09/23 05:31:28;;;;;;;15.00;13.90;;;;;;;7.21;100.00;96850.09;4975000;28;20233;-77
2022/09/23 05:33:59;;;;;;;16.80;15.40;;;;;;;7.43;100.00;96857.47;4975178;28;20665;-76
2022/09/23 05:36:26;;;;;;;18.57;17.17;;;;;;;7.77;100.00;96853.75;4975357;28;20625;-77
2022/09/23 05:38:52;;;;;;;13.27;12.23;;;;;;;7.74;100.00;96859.38;4958219;28;20267;-76
2022/09/23 05:41:21;;;;;;;14.00;12.67;;;;;;;7.83;100.00;96858.13;4975386;28;20288;-76
2022/09/23 05:43:47;;;;;;;14.37;13.37;;;;;;;7.70;100.00;96860.78;4974987;28;20184;-76
2022/09/23 05:46:15;;;;;;;18.27;16.90;;;;;;;7.92;100.00;96861.31;4973936;28;20700;-77
2022/09/23 05:48:42;;;;;;;18.67;17.30;;;;;;;7.97;100.00;96865.91;4975231;28;20650;-76
2022/09/23 05:51:11;;;;;;;14.70;13.63;;;;;;;8.31;98.34;96862.94;4975013;28;20185;-76
2022/09/23 05:53:38;;;;;;;14.63;13.57;;;;;;;8.63;96.18;96853.31;4975086;28;20188;-76
2022/09/23 05:56:05;;;;;;;13.53;12.53;;;;;;;8.62;95.62;96856.91;4975298;28;20780;-77
2022/09/23 05:58:30;;;;;;;16.67;15.37;;;;;;;8.74;95.54;96861.25;4974959;28;20188;-76
2022/09/23 06:00:55;;;;;;;16.13;14.83;;;;;;;8.95;93.98;96854.03;4974759;28;20212;-76
2022/09/23 06:03:22;;;;;;;12.33;11.33;;;;;;;8.92;92.97;96860.50;4976022;28;20279;-77
2022/09/23 06:05:51;;;;;;;12.37;11.47;;;;;;;9.09;92.53;96858.94;4976914;28;20585;-77
2022/09/23 06:08:17;;;;;;;15.63;14.13;;;;;;;9.20;91.00;96860.03;4975097;28;20693;-73
2022/09/23 06:10:44;;;;;;;19.57;18.17;;;;;;;9.14;91.12;96853.06;4974600;28;20279;-73
2022/09/23 06:13:10;;;;;;;17.53;15.90;;;;;;;9.44;89.78;96859.19;4974410;28;20251;-74
2022/09/23 06:15:36;;;;;;;35.87;33.47;;;;;;;9.59;89.47;96849.16;4974194;28;20196;-75
2022/09/23 06:18:02;;;;;;;12.53;11.57;;;;;;;9.69;88.59;96855.72;4974229;28;20177;-75
2022/09/23 06:20:28;;;;;;;12.70;11.63;;;;;;;9.70;87.56;96852.88;4974581;28;20264;-75
2022/09/23 06:22:54;;;;;;;12.17;10.20;;;;;;;9.79;87.62;96856.00;4974046;28;20271;-75
2022/09/23 06:25:21;;;;;;;10.10;9.20;;;;;;;10.06;85.34;96846.00;4973845;28;20183;-75
2022/09/23 06:27:55;;;;;;;10.50;9.50;;;;;;;9.97;85.10;96842.91;4974057;28;20193;-75
2022/09/23 06:30:22;;;;;;;10.93;9.93;;;;;;;10.11;85.17;96849.56;4973672;28;20713;-74
2022/09/23 06:32:50;;;;;;;17.37;15.97;;;;;;;10.10;84.85;96847.16;4973912;28;20232;-75
2022/09/23 06:35:17;;;;;;;15.37;13.93;;;;;;;10.18;85.79;96837.22;4973132;28;20188;-74
2022/09/23 06:37:43;;;;;;;17.27;15.97;;;;;;;10.16;85.59;96843.66;4973339;28;20291;-74
2022/09/23 06:40:09;;;;;;;13.97;12.53;;;;;;;10.37;85.58;96843.97;4974276;28;20267;-74
2022/09/23 06:42:34;;;;;;;12.23;11.03;;;;;;;10.49;84.65;96854.50;4972849;28;20216;-72
2022/09/23 06:45:00;;;;;;;12.00;10.73;;;;;;;10.49;84.16;96845.84;4955009;28;20645;-74
2022/09/23 06:47:27;;;;;;;12.37;11.47;;;;;;;10.77;82.72;96848.63;4973659;28;20220;-75
2022/09/23 06:49:53;;;;;;;10.33;9.53;;;;;;;10.77;82.14;96853.88;4968384;28;20557;-75
2022/09/23 06:52:19;;;;;;;13.37;12.37;;;;;;;10.62;82.90;96849.06;4972089;28;20235;-74
2022/09/23 06:54:46;;;;;;;21.37;19.83;;;;;;;10.66;83.15;96849.41;4973046;28;20725;-75
2022/09/23 06:57:12;;;;;;;34.20;31.70;;;;;;;10.57;83.05;96859.44;4971574;28;20205;-76
2022/09/23 06:59:38;;;;;;;15.77;14.57;;;;;;;10.74;82.39;96852.50;4969570;28;20207;-76
2022/09/23 07:02:04;;;;;;;18.00;16.60;;;;;;;10.72;82.46;96851.13;4954052;29;20685;-76
2022/09/23 07:04:29;;;;;;;24.67;23.07;;;;;;;10.95;81.80;96853.00;4964877;28;20193;-75
2022/09/23 07:06:54;;;;;;;29.10;26.60;;;;;;;10.95;80.97;96860.84;4973572;28;20180;-76
2022/09/23 07:09:20;;;;;;;13.73;12.93;;;;;;;11.02;79.61;96858.94;4973161;28;20185;-76
2022/09/23 07:11:46;;;;;;;23.63;22.00;;;;;;;11.13;78.82;96855.50;4955796;28;20303;-76
2022/09/23 07:14:12;;;;;;;12.70;11.90;;;;;;;11.41;77.11;96854.81;4972662;28;20196;-76
2022/09/23 07:16:38;;;;;;;11.23;10.13;;;;;;;11.42;77.81;96851.97;4973333;28;20192;-76
2022/09/23 07:19:04;;;;;;;10.50;9.70;;;;;;;11.44;78.59;96854.34;4944481;28;20191;-76
2022/09/23 07:21:29;;;;;;;9.70;8.87;;;;;;;11.81;76.72;96855.69;4973350;28;20649;-76
2022/09/23 07:23:56;;;;;;;13.40;12.53;;;;;;;12.00;76.09;96851.88;4970478;28;20248;-76
2022/09/23 07:26:23;;;;;;;17.20;15.80;;;;;;;11.82;76.72;96854.66;4973041;28;20208;-76
2022/09/23 07:28:55;;;;;;;15.67;14.57;;;;;;;12.24;75.75;96854.41;4973451;28;20216;-76
2022/09/23 07:31:21;;;;;;;9.70;8.97;;;;;;;12.36;74.65;96852.53;4972205;28;20232;-76
2022/09/23 07:33:47;;;;;;;8.63;8.03;;;;;;;12.43;73.71;96853.16;4972769;28;20197;-76
2022/09/23 07:36:17;;;;;;;9.67;9.07;;;;;;;12.55;73.64;96853.91;4973504;28;20203;-76
2022/09/23 07:38:43;;;;;;;19.80;18.67;;;;;;;12.67;72.62;96857.28;4973128;28;20200;-77
2022/09/23 07:41:11;;;;;;;20.13;18.73;;;;;;;12.55;73.23;96848.66;4973072;28;20189;-76
2022/09/23 07:43:38;;;;;;;39.80;37.43;;;;;;;12.78;72.60;96852.97;4972936;28;20740;-76
2022/09/23 07:46:09;;;;;;;75.33;71.03;;;;;;;13.03;71.05;96848.13;4968206;28;20196;-76
2022/09/23 07:48:36;;;;;;;75.90;71.87;;;;;;;12.87;70.48;96851.56;4962752;28;20192;-76
2022/09/23 07:51:09;;;;;;;76.00;71.83;;;;;;;12.66;72.03;96839.09;4973094;28;20545;-76
2022/09/23 07:53:35;;;;;;;57.17;54.07;;;;;;;13.01;71.55;96847.56;4973051;28;20239;-76
2022/09/23 07:56:03;;;;;;;56.43;53.40;;;;;;;13.07;70.50;96851.06;4973229;28;20311;-75
2022/09/23 07:58:28;;;;;;;67.20;63.60;;;;;;;13.27;69.11;96848.75;4973133;28;20669;-77
2022/09/23 08:00:54;;;;;;;87.93;83.10;;;;;;;13.25;67.90;96851.66;4972560;28;20185;-78
2022/09/23 08:03:20;;;;;;;74.17;70.00;;;;;;;12.96;68.58;96852.75;4972339;28;20268;-76
2022/09/23 08:05:45;;;;;;;55.67;52.67;;;;;;;12.94;68.98;96857.44;4972888;28;20275;-75
2022/09/23 08:08:12;;;;;;;60.03;56.63;;;;;;;13.17;68.45;96857.31;4972890;28;20219;-76
2022/09/23 08:10:38;;;;;;;65.70;61.90;;;;;;;13.28;67.67;96850.34;4977293;28;20180;-76
2022/09/23 08:13:03;;;;;;;75.80;71.80;;;;;;;13.24;71.78;96855.31;4977725;28;20271;-76
2022/09/23 08:15:30;;;;;;;11.53;10.73;;;;;;;13.38;72.34;96854.97;4977428;28;20271;-76
2022/09/23 08:17:58;;;;;;;22.87;21.40;;;;;;;13.30;73.01;96853.56;4976864;28;20181;-76
2022/09/23 08:20:43;;;;;;;36.83;34.63;;;;;;;13.04;74.72;96860.22;4976641;28;20276;-76
2022/09/23 08:23:08;;;;;;;39.13;36.73;;;;;;;13.21;74.17;96855.78;4975788;28;20222;-77
2022/09/23 08:25:34;;;;;;;36.50;34.23;;;;;;;13.23;73.95;96861.63;4976450;28;20185;-77
2022/09/23 08:28:00;;;;;;;44.13;41.50;;;;;;;12.75;76.35;96856.09;4976196;28;20271;-77
2022/09/23 08:30:25;;;;;;;44.77;42.17;;;;;;;12.83;76.40;96856.47;4975655;28;20181;-77
2022/09/23 08:32:50;;;;;;;40.37;37.53;;;;;;;13.10;75.36;96858.47;4975358;28;20228;-77
2022/09/23 08:35:16;;;;;;;51.60;48.37;;;;;;;13.37;74.74;96859.44;4976294;28;20200;-75
2022/09/23 08:37:41;;;;;;;38.33;36.10;;;;;;;13.05;75.83;96858.41;4975011;28;20752;-75
2022/09/23 08:40:07;;;;;;;32.53;30.57;;;;;;;13.51;74.35;96859.88;4958894;28;20247;-77
2022/09/23 08:42:36;;;;;;;29.87;28.10;;;;;;;13.54;74.08;96857.56;4958174;28;20271;-76
2022/09/23 08:45:06;;;;;;;29.90;27.83;;;;;;;13.48;73.77;96860.38;4971511;28;20275;-76
2022/09/23 08:47:51;;;;;;;33.20;31.10;;;;;;;13.39;74.82;96859.19;4975679;28;20189;-76
2022/09/23 08:50:23;;;;;;;20.37;18.70;;;;;;;13.55;72.98;96850.44;4958551;28;20526;-77
2022/09/23 08:52:51;;;;;;;22.03;20.73;;;;;;;13.67;72.43;96851.94;4958018;28;20177;-76
2022/09/23 08:55:18;;;;;;;24.50;23.00;;;;;;;13.70;72.92;96856.75;4975360;28;20277;-77
2022/09/23 08:57:55;;;;;;;13.43;12.47;;;;;;;13.77;72.18;96853.09;4975106;28;20593;-77
2022/09/23 09:00:33;;;;;;;47.00;44.37;;;;;;;13.80;71.77;96850.78;4975725;28;20239;-77
2022/09/23 09:02:59;;;;;;;30.37;28.50;;;;;;;14.04;70.80;96859.25;4975203;28;20514;-77
2022/09/23 09:05:27;;;;;;;17.53;16.30;;;;;;;14.03;69.69;96858.47;4958089;28;20335;-77
2022/09/23 09:07:56;;;;;;;18.80;17.30;;;;;;;14.13;70.05;96853.28;4958376;28;20188;-77
2022/09/23 09:10:29;;;;;;;32.17;30.30;;;;;;;13.84;71.70;96859.78;4975334;28;20192;-77
2022/09/23 09:13:34;;;;;;;24.87;23.37;;;;;;;14.06;70.75;96854.50;4975672;28;20184;-76
2022/09/23 09:16:37;;;;;;;20.63;19.23;;;;;;;14.13;69.81;96852.50;4974479;28;20236;-77
2022/09/23 09:19:07;;;;;;;21.13;19.77;;;;;;;13.96;70.59;96855.19;4975206;28;20169;-77
2022/09/23 09:21:41;;;;;;;37.53;35.27;;;;;;;14.05;70.20;96845.00;4975119;28;20267;-77
2022/09/23 09:24:18;;;;;;;34.00;31.97;;;;;;;14.25;70.80;96847.88;4974442;28;20189;-76
2022/09/23 09:26:43;;;;;;;40.77;38.37;;;;;;;14.49;68.51;96846.56;4975167;28;20223;-77
2022/09/23 09:29:37;;;;;;;34.03;32.10;;;;;;;14.53;68.04;96839.75;4974931;28;20185;-77
2022/09/23 09:32:42;;;;;;;29.67;27.60;;;;;;;14.65;67.87;96842.25;4974368;28;20244;-77
2022/09/23 09:35:19;;;;;;;43.53;40.93;;;;;;;14.55;68.55;96840.28;4945818;28;20200;-76
2022/09/23 09:37:46;;;;;;;85.17;80.60;;;;;;;14.42;69.04;96838.06;4975051;28;20193;-77
2022/09/23 09:40:15;;;;;;;84.30;79.73;;;;;;;14.32;69.81;96834.50;4975128;28;20255;-78
2022/09/23 09:42:45;;;;;;;102.83;97.00;;;;;;;14.39;70.11;96829.84;4974729;28;20180;-76
2022/09/23 09:45:20;;;;;;;57.37;54.17;;;;;;;14.61;69.08;96825.31;4972123;28;20212;-76
2022/09/23 09:48:09;;;;;;;24.23;22.67;;;;;;;14.77;67.00;96818.31;4968262;28;20195;-76
2022/09/23 09:50:52;;;;;;;32.47;30.63;;;;;;;14.94;65.90;96827.69;4974385;28;20180;-76
2022/09/23 09:53:18;;;;;;;49.13;46.37;;;;;;;15.10;65.29;96823.28;4974699;28;20179;-77
2022/09/23 09:55:44;;;;;;;27.40;25.80;;;;;;;14.93;66.97;96810.25;4974987;28;20188;-77
2022/09/23 09:58:15;;;;;;;32.17;30.23;;;;;;;15.07;66.69;96807.19;4974508;28;20279;-76
2022/09/23 10:00:43;;;;;;;42.90;40.40;;;;;;;15.11;65.99;96809.06;4972490;28;20185;-77
2022/09/23 10:03:14;;;;;;;37.17;35.10;;;;;;;15.25;65.86;96809.41;4972701;28;20277;-77
2022/09/23 10:05:42;;;;;;;36.77;34.70;;;;;;;15.24;65.74;96800.69;4974456;28;20184;-76
2022/09/23 10:08:25;;;;;;;41.27;38.93;;;;;;;15.33;65.99;96808.91;4974512;28;20243;-76
2022/09/23 10:11:16;;;;;;;39.40;37.00;;;;;;;15.20;65.40;96810.19;4973451;28;20610;-77
2022/09/23 10:13:59;;;;;;;163.83;154.73;;;;;;;15.48;63.77;96809.03;4974182;28;20188;-76
2022/09/23 10:16:25;;;;;;;75.03;70.97;;;;;;;15.55;64.50;96804.31;4974487;28;20195;-76
2022/09/23 10:18:55;;;;;;;41.87;39.43;;;;;;;15.54;64.88;96804.59;4972856;28;21002;-77
2022/09/23 10:21:23;;;;;;;57.87;54.23;;;;;;;15.78;64.79;96798.59;4961795;28;20185;-77
2022/09/23 10:23:51;;;;;;;167.27;158.20;;;;;;;15.79;64.09;96805.47;4956114;28;20271;-77
2022/09/23 10:26:26;;;;;;;435.73;409.87;;;;;;;15.78;63.63;96803.09;4971831;28;20200;-76
2022/09/23 10:28:54;;;;;;;464.03;436.73;;;;;;;15.70;64.38;96809.69;4973238;28;20168;-75
2022/09/23 10:31:25;;;;;;;426.23;401.73;;;;;;;15.66;64.37;96802.53;4971940;28;20227;-75
2022/09/23 10:33:56;;;;;;;231.83;218.87;;;;;;;15.67;63.58;96802.25;4973537;28;20203;-74
2022/09/23 10:36:21;;;;;;;219.67;207.60;;;;;;;15.86;63.36;96799.97;4955642;28;20201;-74
2022/09/23 10:38:50;;;;;;;176.43;166.27;;;;;;;16.03;62.70;96800.53;4956587;28;20263;-76
2022/09/23 10:47:34;;;;;;;91.80;86.65;;;;;;;16.37;61.79;96794.78;4973951;28;20196;-76
2022/09/23 10:50:13;;;;;;;58.50;55.10;;;;;;;16.14;62.62;96790.78;4973289;28;20169;-77
2022/09/23 10:53:14;;;;;;;79.32;74.90;;;;;;;16.39;61.09;96784.72;4973613;28;20536;-76
2022/09/23 10:55:49;;;;;;;58.67;55.42;;;;;;;16.64;59.38;96784.78;4942436;29;20209;-76
2022/09/23 10:58:25;;;;;;;43.80;41.47;;;;;;;16.79;59.69;96776.03;4962039;28;20212;-76
2022/09/23 11:01:17;;;;;;;38.05;35.78;;;;;;;16.38;60.80;96781.31;4964331;28;20181;-76
2022/09/23 11:04:15;;;;;;;34.13;32.13;;;;;;;16.80;59.85;96777.63;4973021;28;20227;-76
2022/09/23 11:07:08;;;;;;;115.38;109.05;;;;;;;16.97;58.27;96776.28;4973656;28;20199;-76
2022/09/23 11:09:45;;;;;;;332.77;313.52;;;;;;;17.37;56.74;96778.06;4973723;28;20185;-77
2022/09/23 11:12:37;;;;;;;390.80;367.60;;;;;;;17.45;57.42;96768.75;4973490;28;20172;-77
2022/09/23 11:15:22;;;;;;;235.35;221.57;;;;;;;17.52;57.09;96774.56;4950815;28;20178;-78
2022/09/23 11:18:29;;;;;;;171.98;161.82;;;;;;;16.96;58.80;96766.75;4955060;28;20197;-76
2022/09/23 11:21:45;;;;;;;167.80;158.45;;;;;;;17.05;57.43;96759.06;4968161;28;20195;-78
2022/09/23 11:24:40;;;;;;;192.32;181.82;;;;;;;17.29;56.93;96749.47;4890736;29;20239;-78
2022/09/23 11:27:28;;;;;;;119.97;113.25;;;;;;;16.60;56.42;96744.84;4890778;29;20629;-77
2022/09/23 11:30:14;;;;;;;149.50;141.55;;;;;;;16.82;56.97;96741.09;4875899;29;20686;-78
2022/09/23 11:33:13;;;;;;;91.13;86.28;;;;;;;17.16;55.12;96741.31;4878732;29;20243;-76
2022/09/23 11:36:00;;;;;;;77.90;73.78;;;;;;;17.05;55.61;96740.53;4876184;29;20211;-77
2022/09/23 11:38:34;;;;;;;66.35;62.95;;;;;;;16.95;56.04;96727.28;4887648;29;20284;-77
2022/09/23 11:41:30;;;;;;;43.75;41.30;;;;;;;17.05;58.60;96736.00;4886474;29;20223;-77
2022/09/23 11:44:03;;;;;;;152.38;144.00;;;;;;;16.65;59.89;96728.16;4877627;29;20639;-76
2022/09/23 11:46:31;;;;;;;410.17;387.33;;;;;;;16.83;60.63;96730.22;4891992;29;20226;-76
2022/09/23 11:49:14;;;;;;;303.33;286.80;;;;;;;16.82;59.80;96730.50;4896505;29;20263;-76
2022/09/23 11:51:50;;;;;;;396.10;373.88;;;;;;;16.82;60.60;96727.88;4887377;29;20192;-75